Latest Weather Observations for Broken Hill Airport

IDN60801

Issued at 11:02 pm EST Tuesday 7 July 2015 (issued every 30 minutes, with the page automatically refreshed every 10 minutes)

About weather observations | Map of weather stations | Latest weather observations for NSW | Other Formats
Station Details ID: 047048 Name: BROKEN HILL AIRPORT AWS Lat: -32.00 Lon: 141.47 Height: 281.3 m
Data from the previous 72 hours. | See also: Recent months for locations in New South Wales
Date/Time
EST
Temp
°C
App
Temp
°C
Dew
Point
Rel
Hum
%
Delta-T
°C
Wind Press
QNH
hPa
Press
MSL
hPa
Rain
since 9 am
mm
Dir
 
Spd
km/h
Gust
km/h
Spd
kts
Gust
kts
07/11:00pm 11.6 9.0 5.9 68 2.7 ENE 9 11 5 6 1024.1 1024.4 0.0
07/10:30pm 12.0 9.3 5.6 65 3.0 ESE 9 13 5 7 1023.8 1024.1 0.0
07/10:00pm 12.2 9.1 5.6 64 3.1 E 11 17 6 9 1023.8 1024.1 0.0
07/09:30pm 12.2 9.5 5.6 64 3.1 E 9 15 5 8 1023.9 1024.2 0.0
07/09:00pm 12.4 9.7 5.6 63 3.2 E 9 13 5 7 1023.7 1024.0 0.0
07/08:30pm 12.4 9.7 5.6 63 3.2 ESE 9 11 5 6 1023.5 1023.8 0.0
07/08:00pm 12.9 10.2 5.6 61 3.5 ESE 9 13 5 7 1023.4 1023.7 0.0
07/07:30pm 12.5 11.5 5.4 62 3.4 CALM 0 0 0 0 1023.2 1023.4 0.0
07/07:00pm 12.4 10.1 5.6 63 3.2 S 7 9 4 5 1022.8 1023.1 0.0
07/06:30pm 12.5 10.1 5.4 62 3.3 SSE 7 9 4 5 1022.5 1022.8 0.0
07/06:00pm 12.8 10.1 5.5 61 3.4 SSE 9 13 5 7 1022.1 1022.4 0.0
07/05:30pm 13.4 10.6 5.3 58 3.8 S 9 11 5 6 1022.0 1022.3 0.0
07/05:00pm 14.0 11.5 4.6 53 4.4 S 7 13 4 7 1021.8 1022.1 0.0
07/04:30pm 15.1 12.5 5.9 54 4.5 S 9 13 5 7 1021.7 1022.0 0.0
07/04:00pm 14.3 13.3 5.4 55 4.2 CALM 0 2 0 1 1021.8 1022.1 0.0
07/03:30pm 14.2 11.4 5.0 54 4.3 SW 9 15 5 8 1021.6 1021.9 0.0
07/03:00pm 14.7 13.6 5.2 53 4.5 CALM 0 0 0 0 1021.6 1021.9 0.0
07/02:30pm 14.0 11.7 5.9 58 3.9 WNW 7 9 4 5 1021.6 1021.9 0.0
07/02:00pm 14.1 11.4 5.5 56 4.1 SSW 9 17 5 9 1021.7 1022.0 0.0
07/01:30pm 14.7 13.0 6.0 56 4.2 SW 4 7 2 4 1021.9 1022.2 0.0
07/01:00pm 13.9 11.7 6.0 59 3.8 WSW 7 11 4 6 1022.2 1022.5 0.0
07/12:30pm 13.7 11.1 6.3 61 3.6 WSW 9 17 5 9 1022.5 1022.8 0.0
07/12:00pm 13.7 11.3 7.0 64 3.3 SSW 9 17 5 9 1023.1 1023.3 0.0
07/11:30am 12.6 9.8 6.9 68 2.8 S 11 19 6 10 1023.4 1023.7 0.0
07/11:00am 12.4 8.9 7.1 70 2.6 S 15 20 8 11 1023.5 1023.8 0.0
07/10:30am 11.8 8.3 7.3 74 2.2 SSW 15 20 8 11 1023.6 1023.9 0.0
07/10:00am 11.0 7.9 7.1 77 1.9 SSW 13 20 7 11 1023.5 1023.8 0.0
07/09:30am 9.4 7.3 6.7 83 1.3 SSW 7 9 4 5 1023.3 1023.6 0.0
07/09:00am 7.9 6.9 5.7 86 1.0 CALM 0 0 0 0 1023.1 1023.3 0.0
07/08:30am 7.1 4.8 5.7 91 0.6 W 7 9 4 5 1022.8 1023.1 0.0
07/08:00am 4.8 2.1 3.6 92 0.5 WNW 7 9 4 5 1022.4 1022.7 0.0
07/07:30am 4.1 0.3 1.8 85 0.9 WSW 11 11 6 6 1022.1 1022.4 0.0
07/07:00am 5.8 2.9 4.4 91 0.6 W 9 9 5 5 1021.9 1022.2 0.0
07/06:30am 5.3 2.9 4.1 92 0.5 WSW 6 7 3 4 1021.4 1021.7 0.0
07/06:00am 5.1 3.7 3.8 91 0.6 CALM 0 0 0 0 1021.1 1021.4 0.0
07/05:30am 4.7 3.3 3.4 91 0.5 CALM 0 0 0 0 1020.8 1021.1 0.0
07/05:00am 5.6 3.0 4.1 90 0.6 WSW 7 7 4 4 1020.8 1021.1 0.0
07/04:30am 5.3 2.2 3.8 90 0.6 WSW 9 13 5 7 1020.7 1021.0 0.0
07/04:00am 5.2 1.3 3.4 88 0.8 WSW 13 15 7 8 1020.7 1021.0 0.0
07/03:30am 5.2 1.6 3.1 86 0.9 WSW 11 13 6 7 1020.9 1021.2 0.0
07/03:00am 6.7 4.1 4.0 83 1.2 WSW 7 9 4 5 1020.9 1021.2 0.0
07/02:30am 7.2 4.7 4.0 80 1.4 SW 6 7 3 4 1020.8 1021.1 0.0
07/02:00am 7.1 4.4 3.7 79 1.5 WSW 7 9 4 5 1020.6 1020.9 0.0
07/01:30am 7.2 4.5 3.6 78 1.6 WSW 7 9 4 5 1020.5 1020.8 0.0
07/01:00am 8.0 5.3 3.8 75 1.8 WSW 7 9 4 5 1020.5 1020.8 0.0
07/12:30am 8.2 5.4 3.3 71 2.1 WSW 7 11 4 6 1020.6 1020.9 0.0
07/12:00am 8.9 7.6 3.9 71 2.2 CALM 0 0 0 0 1020.7 1021.0 0.0
 
Date/Time
EST
Temp
°C
App
Temp
°C
Dew
Point
Rel
Hum
%
Delta-T
°C
Wind Press
QNH
hPa
Press
MSL
hPa
Rain
since 9 am
mm
Dir
 
Spd
km/h
Gust
km/h
Spd
kts
Gust
kts
06/11:30pm 9.3 8.1 4.5 72 2.2 CALM 0 0 0 0 1020.6 1020.9 0.0
06/11:00pm 9.0 6.1 4.4 73 2.1 WSW 9 11 5 6 1020.4 1020.7 0.0
06/10:30pm 9.7 6.8 4.9 72 2.2 WSW 9 11 5 6 1020.4 1020.7 0.0
06/10:00pm 9.2 6.6 4.0 70 2.3 WSW 7 9 4 5 1020.2 1020.4 0.0
06/09:30pm 9.7 6.7 4.3 69 2.4 W 9 11 5 6 1019.9 1020.1 0.0
06/09:00pm 9.7 6.2 3.7 66 2.7 WNW 11 13 6 7 1019.8 1020.0 0.0
06/08:30pm 9.4 5.4 2.7 63 2.9 W 13 17 7 9 1019.6 1019.8 0.0
06/08:00pm 12.0 8.9 3.5 56 3.8 NW 9 13 5 7 1019.1 1019.4 0.0
06/07:30pm 11.9 8.7 2.9 54 4.0 NW 9 11 5 6 1018.9 1019.2 0.0
06/07:00pm 12.8 9.7 3.5 53 4.2 NW 9 11 5 6 1018.7 1019.0 0.0
06/06:30pm 12.7 9.1 3.1 52 4.3 NW 11 13 6 7 1018.5 1018.8 0.0
06/06:00pm 13.5 10.0 3.3 50 4.6 NW 11 13 6 7 1018.3 1018.6 0.0
06/05:30pm 15.1 10.4 3.0 44 5.5 WNW 17 22 9 12 1017.9 1018.2 0.0
06/05:00pm 16.2 11.1 2.9 41 6.1 WNW 19 26 10 14 1017.7 1018.0 0.0
06/04:30pm 16.6 11.3 3.0 40 6.3 WNW 20 30 11 16 1017.7 1018.0 0.0
06/04:00pm 16.6 10.5 3.0 40 6.3 NW 24 32 13 17 1017.7 1018.0 0.0
06/03:30pm 17.2 11.9 2.8 38 6.7 WNW 20 30 11 16 1017.6 1017.9 0.0
06/03:00pm 16.9 11.6 2.9 39 6.5 NW 20 30 11 16 1017.4 1017.7 0.0
06/02:30pm 16.5 11.7 2.5 39 6.4 NNW 17 24 9 13 1017.5 1017.8 0.0
06/02:00pm 16.1 10.9 2.5 40 6.2 NW 19 28 10 15 1017.8 1018.1 0.0
06/01:30pm 15.9 10.2 2.7 41 6.0 NW 22 30 12 16 1018.2 1018.5 0.0
06/01:00pm 15.6 10.2 2.7 42 5.9 WNW 20 30 11 16 1018.4 1018.7 0.0
06/12:30pm 15.2 9.6 3.4 45 5.4 WNW 22 26 12 14 1018.9 1019.2 0.0
06/12:00pm 13.3 8.1 2.5 48 4.8 NW 19 28 10 15 1019.6 1019.8 0.0
06/11:30am 13.7 7.6 2.6 47 5.0 NW 24 30 13 16 1019.7 1019.9 0.0
06/11:00am 14.7 7.6 3.8 48 5.0 WNW 30 35 16 19 1020.1 1020.3 0.0
06/10:30am 13.3 6.8 2.5 48 4.8 WNW 26 33 14 18 1019.8 1020.0 0.0
06/10:00am 12.2 7.5 3.4 55 4.0 NW 17 20 9 11 1019.8 1020.0 0.0
06/09:30am 11.4 7.0 2.9 56 3.8 NNW 15 20 8 11 1019.4 1019.6 0.0
06/09:00am 10.3 6.6 2.2 57 3.5 NNW 11 15 6 8 1019.4 1019.6 0.0
06/08:30am 9.1 5.3 2.0 61 3.0 NNW 11 15 6 8 1019.3 1019.5 0.0
06/08:00am 7.9 4.2 2.6 69 2.2 NW 11 15 6 8 1019.3 1019.5 0.0
06/07:30am 8.1 4.1 2.8 69 2.3 NNW 13 17 7 9 1018.8 1019.1 0.0
06/07:00am 8.5 4.5 2.7 67 2.5 NNW 13 17 7 9 1018.2 1018.5 0.0
06/06:30am 8.6 4.2 2.8 67 2.5 NNW 15 19 8 10 1018.5 1018.8 0.0
06/06:00am 8.3 3.5 2.8 68 2.4 NNW 17 20 9 11 1018.5 1018.8 0.0
06/05:30am 7.9 3.9 2.8 70 2.2 NW 13 19 7 10 1018.6 1018.9 0.0
06/05:00am 7.4 2.6 2.7 72 2.0 NNW 17 20 9 11 1018.4 1018.7 0.0
06/04:30am 7.3 2.9 2.6 72 2.0 NW 15 19 8 10 1018.7 1019.0 0.0
06/04:00am 7.5 3.1 2.8 72 2.0 NW 15 20 8 11 1018.8 1019.1 0.0
06/03:30am 7.8 3.0 2.7 70 2.2 NW 17 22 9 12 1018.9 1019.2 0.0
06/03:00am 7.9 3.6 3.0 71 2.1 NW 15 20 8 11 1019.0 1019.3 0.0
06/02:30am 7.9 3.9 3.0 71 2.1 NW 13 19 7 10 1019.3 1019.5 0.0
06/02:00am 8.1 4.1 3.0 70 2.2 NW 13 17 7 9 1019.4 1019.6 0.0
06/01:30am 7.9 4.3 3.2 72 2.0 NW 11 13 6 7 1019.6 1019.8 0.0
06/01:00am 7.5 4.3 3.2 74 1.8 NW 9 11 5 6 1019.7 1019.9 0.0
06/12:30am 5.2 2.0 0.8 73 1.7 NW 7 11 4 6 1020.0 1020.2 0.0
06/12:00am 6.6 3.0 0.7 66 2.4 NNW 9 11 5 6 1020.0 1020.2 0.0
 
Date/Time
EST
Temp
°C
App
Temp
°C
Dew
Point
Rel
Hum
%
Delta-T
°C
Wind Press
QNH
hPa
Press
MSL
hPa
Rain
since 9 am
mm
Dir
 
Spd
km/h
Gust
km/h
Spd
kts
Gust
kts
05/11:30pm 8.6 5.4 3.0 68 2.4 NNW 9 13 5 7 1019.9 1020.1 0.0
05/11:00pm 8.8 5.3 3.4 69 2.4 NW 11 15 6 8 1019.9 1020.1 0.0
05/10:30pm 6.6 3.5 3.6 81 1.3 NNW 9 11 5 6 1020.0 1020.2 0.0
05/10:00pm 4.7 1.8 1.2 78 1.4 NNE 6 7 3 4 1019.9 1020.1 0.0
05/09:30pm 6.0 2.9 1.5 73 1.8 NE 7 9 4 5 1020.1 1020.3 0.0
05/09:00pm 9.9 6.0 3.2 63 2.9 NNW 13 15 7 8 1020.1 1020.3 0.0
05/08:30pm 10.1 6.2 3.2 62 3.0 NNW 13 15 7 8 1020.1 1020.3 0.0
05/08:00pm 10.2 6.3 3.3 62 3.0 NNW 13 15 7 8 1020.1 1020.3 0.0
05/07:30pm 10.3 6.8 3.6 63 3.0 NNW 11 15 6 8 1019.9 1020.1 0.0
05/07:00pm 10.4 6.9 3.4 62 3.1 NNW 11 13 6 7 1019.9 1020.1 0.0
05/06:30pm 11.1 8.3 3.4 59 3.4 NW 7 9 4 5 1019.8 1020.0 0.0
05/06:00pm 11.8 8.7 3.6 57 3.7 NW 9 11 5 6 1019.6 1019.8 0.0
05/05:30pm 12.3 8.8 3.5 55 4.0 WNW 11 15 6 8 1019.6 1019.8 0.0
05/05:00pm 13.6 8.9 3.4 50 4.6 WNW 17 20 9 11 1019.6 1019.8 0.0
05/04:30pm 14.1 10.2 3.3 48 4.9 WNW 13 20 7 11 1019.5 1019.7 0.0
05/04:00pm 14.4 9.7 3.2 47 5.1 WNW 17 24 9 13 1019.5 1019.7 0.0
05/03:30pm 14.7 10.8 3.5 47 5.2 NNW 13 19 7 10 1019.6 1019.8 0.0
05/03:00pm 14.9 11.1 3.7 47 5.2 NW 13 19 7 10 1019.8 1020.0 0.0
05/02:30pm 14.5 10.3 3.9 49 4.9 NW 15 26 8 14 1019.8 1020.0 0.0
05/02:00pm 14.0 10.1 3.2 48 4.9 NW 13 20 7 11 1020.0 1020.2 0.0
05/01:30pm 13.9 9.7 3.9 51 4.6 WNW 15 20 8 11 1020.5 1020.8 0.0
05/01:00pm 13.6 9.3 3.1 49 4.7 WNW 15 24 8 13 1021.0 1021.3 0.0
05/12:30pm 13.1 8.4 2.9 50 4.6 WNW 17 24 9 13 1021.5 1021.8 0.0
05/12:00pm 13.0 8.3 3.4 52 4.3 WNW 17 20 9 11 1021.9 1022.2 0.0
05/11:30am 12.1 7.2 2.0 50 4.4 WNW 17 22 9 12 1022.3 1022.6 0.0
05/11:00am 11.7 7.3 2.7 54 4.0 WNW 15 20 8 11 1022.4 1022.7 0.0
05/10:30am 10.9 6.0 2.0 54 3.8 NW 17 20 9 11 1022.7 1023.0 0.0
05/10:00am 10.3 6.2 2.2 57 3.5 NW 13 19 7 10 1023.1 1023.3 0.0
05/09:30am 9.4 4.8 1.8 59 3.2 NW 15 20 8 11 1022.8 1023.1 0.0
05/09:00am 8.1 5.3 1.9 65 2.6 NNW 6 13 3 7 1022.8 1023.1 0.0
05/08:30am 4.6 1.8 2.3 85 0.9 NNE 6 7 3 4 1022.5 1022.8 0.0
05/08:00am 1.8 -0.2 -0.1 87 0.7 CALM 0 6 0 3 1022.4 1022.7 0.0
05/07:30am 1.8 -1.6 -0.3 86 0.8 ENE 7 9 4 5 1022.0 1022.3 0.0
05/07:00am 1.2 -2.1 -0.9 86 0.8 N 6 7 3 4 1021.7 1022.0 0.0
05/06:30am 3.2 -0.4 0.9 85 0.9 NNW 9 11 5 6 1021.7 1022.0 0.0
05/06:00am 0.8 -2.5 -1.3 86 0.7 N 6 7 3 4 1021.8 1022.1 0.0
05/05:30am 1.1 -2.1 -0.8 87 0.7 N 6 7 3 4 1021.9 1022.2 0.0
05/05:00am 0.5 -3.1 -1.9 84 0.9 N 7 9 4 5 1021.8 1022.1 0.0
05/04:30am 2.1 -1.5 0.3 88 0.7 NE 9 11 5 6 1021.9 1022.2 0.0
05/04:00am 1.4 -2.0 -0.5 87 0.7 ENE 7 9 4 5 1021.9 1022.2 0.0
05/03:30am 1.6 -1.6 -0.3 87 0.7 NNE 6 7 3 4 1021.9 1022.2 0.0
05/03:00am 2.0 -2.1 -0.2 85 0.8 NE 11 13 6 7 1022.0 1022.3 0.0
05/02:30am 5.5 1.5 0.7 71 1.9 NNE 11 15 6 8 1022.2 1022.5 0.0
05/02:00am 4.8 1.0 1.8 81 1.2 NNE 11 13 6 7 1022.5 1022.8 0.0
05/01:30am 5.3 1.6 2.3 81 1.2 NNE 11 15 6 8 1022.6 1022.9 0.0
05/01:00am 2.2 -1.1 0.3 87 0.7 NNE 7 9 4 5 1022.7 1023.0 0.0
05/12:30am 2.3 -1.5 -0.4 82 1.0 NE 9 9 5 5 1022.7 1023.0 0.0
05/12:00am 3.0 -1.4 0.6 84 0.9 NE 13 13 7 7 1022.8 1023.1 0.0

Other Formats:

Comma delimited format used in spreadsheet applications
http://www.bom.gov.au/fwo/IDN60801/IDN60801.94691.axf

JavaScript Object Notation format (JSON) in row-major order
http://www.bom.gov.au/fwo/IDN60801/IDN60801.94691.json